sensor_id;sensor_type;location;lat;lon;timestamp;P1;durP1;ratioP1;P2;durP2;ratioP2
52386;SDS011;38317;53.084;6.960;2023-02-15T00:01:56;26.73;;;14.80;;
52386;SDS011;38317;53.084;6.960;2023-02-15T00:04:24;24.13;;;13.45;;
52386;SDS011;38317;53.084;6.960;2023-02-15T00:07:10;24.85;;;13.80;;
52386;SDS011;38317;53.084;6.960;2023-02-15T00:09:36;27.60;;;14.07;;
52386;SDS011;38317;53.084;6.960;2023-02-15T00:12:02;22.90;;;13.57;;
52386;SDS011;38317;53.084;6.960;2023-02-15T00:14:28;26.35;;;14.32;;
52386;SDS011;38317;53.084;6.960;2023-02-15T00:16:54;26.50;;;14.55;;
52386;SDS011;38317;53.084;6.960;2023-02-15T00:19:20;25.67;;;13.63;;
52386;SDS011;38317;53.084;6.960;2023-02-15T00:21:46;28.20;;;14.35;;
52386;SDS011;38317;53.084;6.960;2023-02-15T00:24:14;26.35;;;14.85;;
52386;SDS011;38317;53.084;6.960;2023-02-15T00:26:42;23.55;;;13.63;;
52386;SDS011;38317;53.084;6.960;2023-02-15T00:29:09;27.05;;;14.48;;
52386;SDS011;38317;53.084;6.960;2023-02-15T00:31:35;23.77;;;13.63;;
52386;SDS011;38317;53.084;6.960;2023-02-15T00:34:03;26.65;;;13.40;;
52386;SDS011;38317;53.084;6.960;2023-02-15T00:36:30;25.10;;;12.25;;
52386;SDS011;38317;53.084;6.960;2023-02-15T00:38:56;22.10;;;12.15;;
52386;SDS011;38317;53.084;6.960;2023-02-15T00:41:22;22.45;;;12.63;;
52386;SDS011;38317;53.084;6.960;2023-02-15T00:43:48;21.55;;;12.30;;
52386;SDS011;38317;53.084;6.960;2023-02-15T00:46:14;25.17;;;13.02;;
52386;SDS011;38317;53.084;6.960;2023-02-15T00:48:40;27.38;;;13.57;;
52386;SDS011;38317;53.084;6.960;2023-02-15T00:51:05;22.15;;;12.75;;
52386;SDS011;38317;53.084;6.960;2023-02-15T00:53:31;20.30;;;11.50;;
52386;SDS011;38317;53.084;6.960;2023-02-15T00:55:57;22.48;;;11.43;;
52386;SDS011;38317;53.084;6.960;2023-02-15T00:58:23;21.27;;;11.65;;
52386;SDS011;38317;53.084;6.960;2023-02-15T01:00:49;18.75;;;11.32;;
52386;SDS011;38317;53.084;6.960;2023-02-15T01:03:17;20.77;;;11.32;;
52386;SDS011;38317;53.084;6.960;2023-02-15T01:05:44;19.70;;;11.02;;
52386;SDS011;38317;53.084;6.960;2023-02-15T01:08:11;17.27;;;9.32;;
52386;SDS011;38317;53.084;6.960;2023-02-15T01:10:37;17.90;;;9.90;;
52386;SDS011;38317;53.084;6.960;2023-02-15T01:13:03;18.55;;;9.35;;
52386;SDS011;38317;53.084;6.960;2023-02-15T01:15:29;16.40;;;8.90;;
52386;SDS011;38317;53.084;6.960;2023-02-15T01:17:55;16.00;;;8.75;;
52386;SDS011;38317;53.084;6.960;2023-02-15T01:20:21;17.77;;;9.13;;
52386;SDS011;38317;53.084;6.960;2023-02-15T01:22:52;15.57;;;9.02;;
52386;SDS011;38317;53.084;6.960;2023-02-15T01:25:19;17.17;;;8.80;;
52386;SDS011;38317;53.084;6.960;2023-02-15T01:27:46;17.10;;;9.73;;
52386;SDS011;38317;53.084;6.960;2023-02-15T01:30:12;17.33;;;9.80;;
52386;SDS011;38317;53.084;6.960;2023-02-15T01:32:38;18.35;;;10.40;;
52386;SDS011;38317;53.084;6.960;2023-02-15T01:35:04;16.73;;;10.10;;
52386;SDS011;38317;53.084;6.960;2023-02-15T01:37:31;17.92;;;10.35;;
52386;SDS011;38317;53.084;6.960;2023-02-15T01:39:58;19.40;;;9.90;;
52386;SDS011;38317;53.084;6.960;2023-02-15T01:42:25;18.77;;;10.73;;
52386;SDS011;38317;53.084;6.960;2023-02-15T01:44:53;17.55;;;10.02;;
52386;SDS011;38317;53.084;6.960;2023-02-15T01:52:38;36.35;;;11.00;;
52386;SDS011;38317;53.084;6.960;2023-02-15T01:55:20;57.45;;;12.63;;
52386;SDS011;38317;53.084;6.960;2023-02-15T01:57:48;21.80;;;10.48;;
52386;SDS011;38317;53.084;6.960;2023-02-15T02:00:15;18.52;;;11.05;;
52386;SDS011;38317;53.084;6.960;2023-02-15T02:02:42;19.90;;;11.20;;
52386;SDS011;38317;53.084;6.960;2023-02-15T02:05:10;17.88;;;10.10;;
52386;SDS011;38317;53.084;6.960;2023-02-15T02:07:41;16.85;;;9.77;;
52386;SDS011;38317;53.084;6.960;2023-02-15T02:10:11;17.92;;;9.93;;
52386;SDS011;38317;53.084;6.960;2023-02-15T02:12:40;18.90;;;9.95;;
52386;SDS011;38317;53.084;6.960;2023-02-15T02:15:09;16.00;;;9.48;;
52386;SDS011;38317;53.084;6.960;2023-02-15T02:17:54;15.25;;;9.48;;
52386;SDS011;38317;53.084;6.960;2023-02-15T02:20:51;15.93;;;9.48;;
52386;SDS011;38317;53.084;6.960;2023-02-15T02:23:26;16.15;;;9.43;;
52386;SDS011;38317;53.084;6.960;2023-02-15T02:26:11;19.00;;;9.77;;
52386;SDS011;38317;53.084;6.960;2023-02-15T02:44:54;17.48;;;10.23;;
52386;SDS011;38317;53.084;6.960;2023-02-15T02:50:07;20.80;;;10.55;;
52386;SDS011;38317;53.084;6.960;2023-02-15T02:55:10;20.77;;;11.00;;
52386;SDS011;38317;53.084;6.960;2023-02-15T02:57:53;16.83;;;9.68;;
52386;SDS011;38317;53.084;6.960;2023-02-15T03:00:25;15.95;;;9.45;;
52386;SDS011;38317;53.084;6.960;2023-02-15T03:03:06;17.05;;;10.20;;
52386;SDS011;38317;53.084;6.960;2023-02-15T03:05:41;16.90;;;9.68;;
52386;SDS011;38317;53.084;6.960;2023-02-15T03:08:09;19.20;;;10.35;;
52386;SDS011;38317;53.084;6.960;2023-02-15T03:10:38;19.08;;;10.50;;
52386;SDS011;38317;53.084;6.960;2023-02-15T03:13:05;16.23;;;9.32;;
52386;SDS011;38317;53.084;6.960;2023-02-15T03:15:36;17.27;;;9.43;;
52386;SDS011;38317;53.084;6.960;2023-02-15T03:18:25;16.48;;;9.30;;
52386;SDS011;38317;53.084;6.960;2023-02-15T03:20:57;19.30;;;10.15;;
52386;SDS011;38317;53.084;6.960;2023-02-15T03:23:26;19.08;;;10.38;;
52386;SDS011;38317;53.084;6.960;2023-02-15T03:25:58;16.48;;;10.02;;
52386;SDS011;38317;53.084;6.960;2023-02-15T03:28:36;20.73;;;10.53;;
52386;SDS011;38317;53.084;6.960;2023-02-15T03:31:06;21.27;;;10.85;;
52386;SDS011;38317;53.084;6.960;2023-02-15T03:33:36;17.58;;;9.25;;
52386;SDS011;38317;53.084;6.960;2023-02-15T03:36:09;18.77;;;11.00;;
52386;SDS011;38317;53.084;6.960;2023-02-15T03:41:26;45.08;;;10.25;;
52386;SDS011;38317;53.084;6.960;2023-02-15T03:44:07;16.85;;;9.07;;
52386;SDS011;38317;53.084;6.960;2023-02-15T03:46:49;15.18;;;9.00;;
52386;SDS011;38317;53.084;6.960;2023-02-15T03:49:40;18.38;;;10.18;;
52386;SDS011;38317;53.084;6.960;2023-02-15T03:52:10;15.15;;;9.10;;
52386;SDS011;38317;53.084;6.960;2023-02-15T03:54:39;16.25;;;10.05;;
52386;SDS011;38317;53.084;6.960;2023-02-15T03:57:27;17.63;;;10.02;;
52386;SDS011;38317;53.084;6.960;2023-02-15T04:03:04;24.63;;;11.70;;
52386;SDS011;38317;53.084;6.960;2023-02-15T04:05:35;26.50;;;10.23;;
52386;SDS011;38317;53.084;6.960;2023-02-15T04:08:02;20.67;;;9.75;;
52386;SDS011;38317;53.084;6.960;2023-02-15T04:10:28;78.07;;;11.20;;
52386;SDS011;38317;53.084;6.960;2023-02-15T04:13:13;61.33;;;11.40;;
52386;SDS011;38317;53.084;6.960;2023-02-15T04:15:38;36.03;;;10.95;;
52386;SDS011;38317;53.084;6.960;2023-02-15T04:18:23;43.03;;;10.68;;
52386;SDS011;38317;53.084;6.960;2023-02-15T04:21:07;19.23;;;9.50;;
52386;SDS011;38317;53.084;6.960;2023-02-15T04:23:51;20.60;;;10.27;;
52386;SDS011;38317;53.084;6.960;2023-02-15T04:26:35;24.45;;;11.73;;
52386;SDS011;38317;53.084;6.960;2023-02-15T04:29:01;25.33;;;10.50;;
52386;SDS011;38317;53.084;6.960;2023-02-15T04:31:27;20.05;;;11.20;;
52386;SDS011;38317;53.084;6.960;2023-02-15T04:33:52;27.35;;;12.02;;
52386;SDS011;38317;53.084;6.960;2023-02-15T04:36:18;22.63;;;11.13;;
52386;SDS011;38317;53.084;6.960;2023-02-15T04:38:44;22.90;;;11.60;;
52386;SDS011;38317;53.084;6.960;2023-02-15T04:41:09;33.63;;;11.95;;
52386;SDS011;38317;53.084;6.960;2023-02-15T04:43:37;23.52;;;12.48;;
52386;SDS011;38317;53.084;6.960;2023-02-15T04:46:03;21.33;;;12.18;;
52386;SDS011;38317;53.084;6.960;2023-02-15T04:48:29;27.15;;;12.30;;
52386;SDS011;38317;53.084;6.960;2023-02-15T04:50:55;21.85;;;11.80;;
52386;SDS011;38317;53.084;6.960;2023-02-15T04:53:21;20.65;;;11.75;;
52386;SDS011;38317;53.084;6.960;2023-02-15T04:55:47;19.45;;;11.18;;
52386;SDS011;38317;53.084;6.960;2023-02-15T04:58:12;22.90;;;12.45;;
52386;SDS011;38317;53.084;6.960;2023-02-15T05:00:38;23.48;;;12.23;;
52386;SDS011;38317;53.084;6.960;2023-02-15T05:03:04;20.05;;;10.93;;
52386;SDS011;38317;53.084;6.960;2023-02-15T05:05:30;25.02;;;12.57;;
52386;SDS011;38317;53.084;6.960;2023-02-15T05:07:55;23.33;;;12.27;;
52386;SDS011;38317;53.084;6.960;2023-02-15T05:10:21;25.55;;;12.38;;
52386;SDS011;38317;53.084;6.960;2023-02-15T05:12:47;24.83;;;13.18;;
52386;SDS011;38317;53.084;6.960;2023-02-15T05:15:13;22.55;;;12.80;;
52386;SDS011;38317;53.084;6.960;2023-02-15T05:17:39;24.85;;;14.00;;
52386;SDS011;38317;53.084;6.960;2023-02-15T05:20:05;22.55;;;12.15;;
52386;SDS011;38317;53.084;6.960;2023-02-15T05:22:31;25.45;;;14.13;;
52386;SDS011;38317;53.084;6.960;2023-02-15T05:24:57;24.77;;;13.13;;
52386;SDS011;38317;53.084;6.960;2023-02-15T05:27:41;26.17;;;13.00;;
52386;SDS011;38317;53.084;6.960;2023-02-15T05:30:25;23.92;;;12.43;;
52386;SDS011;38317;53.084;6.960;2023-02-15T05:32:51;24.17;;;13.35;;
52386;SDS011;38317;53.084;6.960;2023-02-15T05:35:17;24.75;;;13.30;;
52386;SDS011;38317;53.084;6.960;2023-02-15T05:37:43;25.88;;;13.90;;
52386;SDS011;38317;53.084;6.960;2023-02-15T05:40:09;26.77;;;14.68;;
52386;SDS011;38317;53.084;6.960;2023-02-15T05:42:35;27.48;;;13.73;;
52386;SDS011;38317;53.084;6.960;2023-02-15T05:45:00;25.27;;;13.05;;
52386;SDS011;38317;53.084;6.960;2023-02-15T05:47:28;22.88;;;13.48;;
52386;SDS011;38317;53.084;6.960;2023-02-15T05:49:54;24.33;;;13.55;;
52386;SDS011;38317;53.084;6.960;2023-02-15T05:52:20;23.63;;;12.15;;
52386;SDS011;38317;53.084;6.960;2023-02-15T05:54:46;22.00;;;12.48;;
52386;SDS011;38317;53.084;6.960;2023-02-15T05:57:12;26.55;;;14.00;;
52386;SDS011;38317;53.084;6.960;2023-02-15T05:59:38;24.70;;;13.23;;
52386;SDS011;38317;53.084;6.960;2023-02-15T06:02:04;22.85;;;13.10;;
52386;SDS011;38317;53.084;6.960;2023-02-15T06:04:31;24.38;;;13.18;;
52386;SDS011;38317;53.084;6.960;2023-02-15T06:06:57;22.88;;;13.40;;
52386;SDS011;38317;53.084;6.960;2023-02-15T06:09:22;22.42;;;12.85;;
52386;SDS011;38317;53.084;6.960;2023-02-15T06:11:48;26.25;;;13.30;;
52386;SDS011;38317;53.084;6.960;2023-02-15T06:14:14;24.95;;;13.95;;
52386;SDS011;38317;53.084;6.960;2023-02-15T06:16:40;23.73;;;13.55;;
52386;SDS011;38317;53.084;6.960;2023-02-15T06:19:05;24.90;;;13.52;;
52386;SDS011;38317;53.084;6.960;2023-02-15T06:21:31;24.95;;;13.75;;
52386;SDS011;38317;53.084;6.960;2023-02-15T06:23:57;26.20;;;13.73;;
52386;SDS011;38317;53.084;6.960;2023-02-15T06:26:23;23.98;;;12.70;;
52386;SDS011;38317;53.084;6.960;2023-02-15T06:28:48;24.02;;;12.50;;
52386;SDS011;38317;53.084;6.960;2023-02-15T06:31:14;27.35;;;13.25;;
52386;SDS011;38317;53.084;6.960;2023-02-15T06:33:40;22.85;;;12.60;;
52386;SDS011;38317;53.084;6.960;2023-02-15T06:36:06;44.83;;;14.00;;
52386;SDS011;38317;53.084;6.960;2023-02-15T06:38:32;22.35;;;12.25;;
52386;SDS011;38317;53.084;6.960;2023-02-15T06:40:58;28.58;;;14.32;;
52386;SDS011;38317;53.084;6.960;2023-02-15T06:43:23;23.83;;;13.07;;
52386;SDS011;38317;53.084;6.960;2023-02-15T06:45:49;26.60;;;14.45;;
52386;SDS011;38317;53.084;6.960;2023-02-15T06:48:15;27.70;;;13.68;;
52386;SDS011;38317;53.084;6.960;2023-02-15T06:50:41;26.25;;;14.40;;
52386;SDS011;38317;53.084;6.960;2023-02-15T06:53:06;25.90;;;13.93;;
52386;SDS011;38317;53.084;6.960;2023-02-15T06:55:32;26.83;;;14.23;;
52386;SDS011;38317;53.084;6.960;2023-02-15T06:57:58;25.13;;;13.48;;
52386;SDS011;38317;53.084;6.960;2023-02-15T07:00:24;29.55;;;13.75;;
52386;SDS011;38317;53.084;6.960;2023-02-15T07:02:56;24.95;;;13.27;;
52386;SDS011;38317;53.084;6.960;2023-02-15T07:05:26;23.55;;;13.05;;
52386;SDS011;38317;53.084;6.960;2023-02-15T07:07:58;26.17;;;14.00;;
52386;SDS011;38317;53.084;6.960;2023-02-15T07:10:25;24.42;;;13.23;;
52386;SDS011;38317;53.084;6.960;2023-02-15T07:12:52;32.83;;;14.10;;
52386;SDS011;38317;53.084;6.960;2023-02-15T07:15:18;24.55;;;12.55;;
52386;SDS011;38317;53.084;6.960;2023-02-15T07:17:46;24.20;;;12.88;;
52386;SDS011;38317;53.084;6.960;2023-02-15T07:20:21;24.05;;;13.45;;
52386;SDS011;38317;53.084;6.960;2023-02-15T07:22:48;26.42;;;13.88;;
52386;SDS011;38317;53.084;6.960;2023-02-15T07:25:14;27.38;;;14.30;;
52386;SDS011;38317;53.084;6.960;2023-02-15T07:27:40;24.13;;;13.48;;
52386;SDS011;38317;53.084;6.960;2023-02-15T07:30:06;26.88;;;13.75;;
52386;SDS011;38317;53.084;6.960;2023-02-15T07:32:34;29.10;;;14.25;;
52386;SDS011;38317;53.084;6.960;2023-02-15T07:35:00;24.27;;;13.60;;
52386;SDS011;38317;53.084;6.960;2023-02-15T07:37:26;27.33;;;14.57;;
52386;SDS011;38317;53.084;6.960;2023-02-15T07:39:52;24.33;;;13.25;;
52386;SDS011;38317;53.084;6.960;2023-02-15T07:42:18;27.88;;;13.93;;
52386;SDS011;38317;53.084;6.960;2023-02-15T07:44:46;29.02;;;13.30;;
52386;SDS011;38317;53.084;6.960;2023-02-15T07:47:11;24.65;;;12.35;;
52386;SDS011;38317;53.084;6.960;2023-02-15T07:49:37;25.85;;;13.85;;
52386;SDS011;38317;53.084;6.960;2023-02-15T07:52:03;24.08;;;13.07;;
52386;SDS011;38317;53.084;6.960;2023-02-15T07:54:29;28.23;;;14.65;;
52386;SDS011;38317;53.084;6.960;2023-02-15T07:56:55;30.45;;;14.63;;
52386;SDS011;38317;53.084;6.960;2023-02-15T07:59:21;25.13;;;14.38;;
52386;SDS011;38317;53.084;6.960;2023-02-15T08:01:47;29.63;;;15.52;;
52386;SDS011;38317;53.084;6.960;2023-02-15T08:04:12;25.25;;;14.55;;
52386;SDS011;38317;53.084;6.960;2023-02-15T08:06:38;28.00;;;16.02;;
52386;SDS011;38317;53.084;6.960;2023-02-15T08:09:05;32.05;;;15.48;;
52386;SDS011;38317;53.084;6.960;2023-02-15T08:11:33;28.08;;;15.20;;
52386;SDS011;38317;53.084;6.960;2023-02-15T08:14:06;31.33;;;15.63;;
52386;SDS011;38317;53.084;6.960;2023-02-15T08:19:08;31.50;;;15.45;;
52386;SDS011;38317;53.084;6.960;2023-02-15T08:21:41;33.03;;;16.20;;
52386;SDS011;38317;53.084;6.960;2023-02-15T08:24:09;27.75;;;15.57;;
52386;SDS011;38317;53.084;6.960;2023-02-15T08:26:36;28.48;;;15.65;;
52386;SDS011;38317;53.084;6.960;2023-02-15T08:29:04;34.92;;;16.25;;
52386;SDS011;38317;53.084;6.960;2023-02-15T08:31:31;31.20;;;16.67;;
52386;SDS011;38317;53.084;6.960;2023-02-15T08:33:58;30.63;;;15.88;;
52386;SDS011;38317;53.084;6.960;2023-02-15T08:36:26;36.95;;;17.27;;
52386;SDS011;38317;53.084;6.960;2023-02-15T08:38:54;32.15;;;16.50;;
52386;SDS011;38317;53.084;6.960;2023-02-15T08:41:23;36.08;;;17.33;;
52386;SDS011;38317;53.084;6.960;2023-02-15T08:43:54;32.95;;;17.02;;
52386;SDS011;38317;53.084;6.960;2023-02-15T08:46:22;38.30;;;18.13;;
52386;SDS011;38317;53.084;6.960;2023-02-15T08:48:49;33.22;;;16.85;;
52386;SDS011;38317;53.084;6.960;2023-02-15T08:51:19;33.33;;;16.73;;
52386;SDS011;38317;53.084;6.960;2023-02-15T08:53:49;33.70;;;18.10;;
52386;SDS011;38317;53.084;6.960;2023-02-15T08:56:18;37.05;;;17.45;;
52386;SDS011;38317;53.084;6.960;2023-02-15T08:58:46;37.75;;;19.15;;
52386;SDS011;38317;53.084;6.960;2023-02-15T09:01:16;33.17;;;16.45;;
52386;SDS011;38317;53.084;6.960;2023-02-15T09:03:48;35.05;;;18.80;;
52386;SDS011;38317;53.084;6.960;2023-02-15T09:06:17;41.03;;;18.38;;
52386;SDS011;38317;53.084;6.960;2023-02-15T09:08:43;32.55;;;16.25;;
52386;SDS011;38317;53.084;6.960;2023-02-15T09:13:36;36.72;;;19.55;;
52386;SDS011;38317;53.084;6.960;2023-02-15T09:16:04;33.15;;;18.02;;
52386;SDS011;38317;53.084;6.960;2023-02-15T09:18:32;38.67;;;20.02;;
52386;SDS011;38317;53.084;6.960;2023-02-15T09:21:10;41.13;;;19.95;;
52386;SDS011;38317;53.084;6.960;2023-02-15T09:23:48;38.72;;;19.42;;
52386;SDS011;38317;53.084;6.960;2023-02-15T09:26:16;34.85;;;18.52;;
52386;SDS011;38317;53.084;6.960;2023-02-15T09:28:43;38.42;;;19.25;;
52386;SDS011;38317;53.084;6.960;2023-02-15T09:33:37;40.78;;;20.05;;
52386;SDS011;38317;53.084;6.960;2023-02-15T09:36:05;36.95;;;18.85;;
52386;SDS011;38317;53.084;6.960;2023-02-15T09:38:38;36.13;;;20.55;;
52386;SDS011;38317;53.084;6.960;2023-02-15T09:41:08;36.17;;;18.40;;
52386;SDS011;38317;53.084;6.960;2023-02-15T09:47:03;34.53;;;17.67;;
52386;SDS011;38317;53.084;6.960;2023-02-15T09:52:22;41.03;;;19.80;;
52386;SDS011;38317;53.084;6.960;2023-02-15T09:58:19;40.53;;;20.58;;
52386;SDS011;38317;53.084;6.960;2023-02-15T10:00:58;36.50;;;19.23;;
52386;SDS011;38317;53.084;6.960;2023-02-15T10:15:06;38.55;;;20.02;;
52386;SDS011;38317;53.084;6.960;2023-02-15T10:33:55;36.30;;;19.73;;
52386;SDS011;38317;53.084;6.960;2023-02-15T10:36:47;37.08;;;19.73;;
52386;SDS011;38317;53.084;6.960;2023-02-15T10:50:51;37.30;;;20.43;;
52386;SDS011;38317;53.084;6.960;2023-02-15T10:58:24;37.75;;;22.05;;
52386;SDS011;38317;53.084;6.960;2023-02-15T11:06:12;39.17;;;21.77;;
52386;SDS011;38317;53.084;6.960;2023-02-15T11:08:43;36.00;;;22.05;;
52386;SDS011;38317;53.084;6.960;2023-02-15T11:11:22;36.97;;;22.38;;
52386;SDS011;38317;53.084;6.960;2023-02-15T11:13:53;39.50;;;21.50;;
52386;SDS011;38317;53.084;6.960;2023-02-15T11:16:28;36.22;;;20.15;;
52386;SDS011;38317;53.084;6.960;2023-02-15T11:18:58;37.55;;;21.20;;
52386;SDS011;38317;53.084;6.960;2023-02-15T11:21:33;37.55;;;22.00;;
52386;SDS011;38317;53.084;6.960;2023-02-15T11:24:14;33.00;;;19.95;;
52386;SDS011;38317;53.084;6.960;2023-02-15T11:29:12;36.00;;;22.80;;
52386;SDS011;38317;53.084;6.960;2023-02-15T11:32:01;35.88;;;20.52;;
52386;SDS011;38317;53.084;6.960;2023-02-15T11:34:38;37.28;;;22.10;;
52386;SDS011;38317;53.084;6.960;2023-02-15T11:37:15;36.97;;;20.98;;
52386;SDS011;38317;53.084;6.960;2023-02-15T11:39:44;35.83;;;21.58;;
52386;SDS011;38317;53.084;6.960;2023-02-15T11:42:17;38.25;;;22.02;;
52386;SDS011;38317;53.084;6.960;2023-02-15T11:45:02;35.53;;;20.98;;
52386;SDS011;38317;53.084;6.960;2023-02-15T11:47:42;36.45;;;22.15;;
52386;SDS011;38317;53.084;6.960;2023-02-15T11:50:15;34.33;;;21.42;;
52386;SDS011;38317;53.084;6.960;2023-02-15T11:52:47;38.28;;;20.92;;
52386;SDS011;38317;53.084;6.960;2023-02-15T11:55:14;32.25;;;19.52;;
52386;SDS011;38317;53.084;6.960;2023-02-15T11:57:46;32.40;;;19.40;;
52386;SDS011;38317;53.084;6.960;2023-02-15T12:00:24;36.60;;;20.58;;
52386;SDS011;38317;53.084;6.960;2023-02-15T12:02:56;34.28;;;19.80;;
52386;SDS011;38317;53.084;6.960;2023-02-15T12:05:23;34.85;;;20.05;;
52386;SDS011;38317;53.084;6.960;2023-02-15T12:08:08;33.83;;;19.13;;
52386;SDS011;38317;53.084;6.960;2023-02-15T12:11:02;32.20;;;20.05;;
52386;SDS011;38317;53.084;6.960;2023-02-15T12:16:25;33.80;;;20.88;;
52386;SDS011;38317;53.084;6.960;2023-02-15T12:18:53;34.90;;;21.08;;
52386;SDS011;38317;53.084;6.960;2023-02-15T12:21:32;35.40;;;20.73;;
52386;SDS011;38317;53.084;6.960;2023-02-15T12:24:17;38.58;;;21.77;;
52386;SDS011;38317;53.084;6.960;2023-02-15T12:26:59;33.88;;;19.42;;
52386;SDS011;38317;53.084;6.960;2023-02-15T12:29:30;33.92;;;19.02;;
52386;SDS011;38317;53.084;6.960;2023-02-15T12:32:05;33.85;;;18.50;;
52386;SDS011;38317;53.084;6.960;2023-02-15T12:34:44;30.42;;;17.77;;
52386;SDS011;38317;53.084;6.960;2023-02-15T12:37:16;33.53;;;18.55;;
52386;SDS011;38317;53.084;6.960;2023-02-15T12:39:56;32.17;;;19.08;;
52386;SDS011;38317;53.084;6.960;2023-02-15T12:42:24;29.63;;;17.15;;
52386;SDS011;38317;53.084;6.960;2023-02-15T12:44:54;31.80;;;18.23;;
52386;SDS011;38317;53.084;6.960;2023-02-15T12:47:22;31.52;;;17.52;;
52386;SDS011;38317;53.084;6.960;2023-02-15T12:52:34;33.88;;;19.25;;
52386;SDS011;38317;53.084;6.960;2023-02-15T12:55:09;34.20;;;19.00;;
52386;SDS011;38317;53.084;6.960;2023-02-15T12:57:46;33.67;;;19.60;;
52386;SDS011;38317;53.084;6.960;2023-02-15T13:02:46;31.13;;;18.55;;
52386;SDS011;38317;53.084;6.960;2023-02-15T13:05:29;36.00;;;20.92;;
52386;SDS011;38317;53.084;6.960;2023-02-15T13:07:56;34.92;;;19.83;;
52386;SDS011;38317;53.084;6.960;2023-02-15T13:13:19;35.25;;;20.40;;
52386;SDS011;38317;53.084;6.960;2023-02-15T13:15:51;36.28;;;20.88;;
52386;SDS011;38317;53.084;6.960;2023-02-15T13:20:51;37.00;;;20.85;;
52386;SDS011;38317;53.084;6.960;2023-02-15T13:23:26;38.70;;;22.45;;
52386;SDS011;38317;53.084;6.960;2023-02-15T13:25:54;33.65;;;20.73;;
52386;SDS011;38317;53.084;6.960;2023-02-15T13:28:24;34.03;;;20.13;;
52386;SDS011;38317;53.084;6.960;2023-02-15T13:33:26;34.00;;;19.90;;
52386;SDS011;38317;53.084;6.960;2023-02-15T13:41:58;36.65;;;21.15;;
52386;SDS011;38317;53.084;6.960;2023-02-15T13:45:19;34.53;;;20.25;;
52386;SDS011;38317;53.084;6.960;2023-02-15T13:55:57;40.72;;;20.05;;
52386;SDS011;38317;53.084;6.960;2023-02-15T14:20:59;31.85;;;17.77;;
52386;SDS011;38317;53.084;6.960;2023-02-15T14:28:53;32.28;;;17.85;;
52386;SDS011;38317;53.084;6.960;2023-02-15T14:31:28;31.23;;;17.58;;
52386;SDS011;38317;53.084;6.960;2023-02-15T14:33:59;33.08;;;17.83;;
52386;SDS011;38317;53.084;6.960;2023-02-15T14:36:25;33.25;;;18.33;;
52386;SDS011;38317;53.084;6.960;2023-02-15T14:39:00;27.73;;;16.48;;
52386;SDS011;38317;53.084;6.960;2023-02-15T14:41:39;30.92;;;17.52;;
52386;SDS011;38317;53.084;6.960;2023-02-15T14:44:15;30.73;;;17.02;;
52386;SDS011;38317;53.084;6.960;2023-02-15T14:49:22;27.33;;;16.00;;
52386;SDS011;38317;53.084;6.960;2023-02-15T15:05:00;30.40;;;16.52;;
52386;SDS011;38317;53.084;6.960;2023-02-15T15:10:04;26.67;;;16.58;;
52386;SDS011;38317;53.084;6.960;2023-02-15T15:12:57;28.17;;;15.60;;
52386;SDS011;38317;53.084;6.960;2023-02-15T15:17:59;28.10;;;16.08;;
52386;SDS011;38317;53.084;6.960;2023-02-15T15:20:51;30.35;;;16.70;;
52386;SDS011;38317;53.084;6.960;2023-02-15T15:42:49;30.33;;;17.05;;
52386;SDS011;38317;53.084;6.960;2023-02-15T15:45:46;28.85;;;16.20;;
52386;SDS011;38317;53.084;6.960;2023-02-15T15:48:30;30.13;;;17.05;;
52386;SDS011;38317;53.084;6.960;2023-02-15T15:51:04;29.00;;;16.13;;
52386;SDS011;38317;53.084;6.960;2023-02-15T15:53:38;28.85;;;16.17;;
52386;SDS011;38317;53.084;6.960;2023-02-15T15:56:10;29.10;;;17.05;;
52386;SDS011;38317;53.084;6.960;2023-02-15T15:58:41;27.00;;;15.95;;
52386;SDS011;38317;53.084;6.960;2023-02-15T16:01:12;28.25;;;16.30;;
52386;SDS011;38317;53.084;6.960;2023-02-15T16:03:38;28.77;;;16.58;;
52386;SDS011;38317;53.084;6.960;2023-02-15T16:06:25;27.48;;;15.43;;
52386;SDS011;38317;53.084;6.960;2023-02-15T16:09:23;29.58;;;16.42;;
52386;SDS011;38317;53.084;6.960;2023-02-15T16:11:56;28.35;;;16.73;;
52386;SDS011;38317;53.084;6.960;2023-02-15T16:14:31;29.75;;;17.02;;
52386;SDS011;38317;53.084;6.960;2023-02-15T16:19:29;27.92;;;15.77;;
52386;SDS011;38317;53.084;6.960;2023-02-15T16:22:00;31.15;;;18.58;;
52386;SDS011;38317;53.084;6.960;2023-02-15T16:24:36;28.30;;;16.77;;
52386;SDS011;38317;53.084;6.960;2023-02-15T16:29:53;29.10;;;16.27;;
52386;SDS011;38317;53.084;6.960;2023-02-15T16:32:20;27.58;;;15.85;;
52386;SDS011;38317;53.084;6.960;2023-02-15T16:34:53;27.30;;;15.98;;
52386;SDS011;38317;53.084;6.960;2023-02-15T16:37:22;30.75;;;17.40;;
52386;SDS011;38317;53.084;6.960;2023-02-15T16:39:52;29.65;;;16.30;;
52386;SDS011;38317;53.084;6.960;2023-02-15T16:42:20;28.52;;;16.25;;
52386;SDS011;38317;53.084;6.960;2023-02-15T16:44:51;24.65;;;14.23;;
52386;SDS011;38317;53.084;6.960;2023-02-15T16:47:33;26.10;;;15.50;;
52386;SDS011;38317;53.084;6.960;2023-02-15T16:50:05;31.50;;;17.33;;
52386;SDS011;38317;53.084;6.960;2023-02-15T16:52:41;29.65;;;16.40;;
52386;SDS011;38317;53.084;6.960;2023-02-15T16:55:18;33.70;;;17.83;;
52386;SDS011;38317;53.084;6.960;2023-02-15T16:57:49;28.50;;;16.40;;
52386;SDS011;38317;53.084;6.960;2023-02-15T17:00:19;30.77;;;17.85;;
52386;SDS011;38317;53.084;6.960;2023-02-15T17:02:58;30.70;;;17.42;;
52386;SDS011;38317;53.084;6.960;2023-02-15T17:05:30;31.55;;;17.60;;
52386;SDS011;38317;53.084;6.960;2023-02-15T17:08:16;30.17;;;17.80;;
52386;SDS011;38317;53.084;6.960;2023-02-15T17:16:32;29.38;;;16.33;;
52386;SDS011;38317;53.084;6.960;2023-02-15T17:19:14;32.58;;;16.70;;
52386;SDS011;38317;53.084;6.960;2023-02-15T17:21:46;30.42;;;17.08;;
52386;SDS011;38317;53.084;6.960;2023-02-15T17:24:16;31.55;;;17.20;;
52386;SDS011;38317;53.084;6.960;2023-02-15T17:26:54;30.05;;;14.68;;
52386;SDS011;38317;53.084;6.960;2023-02-15T17:29:43;30.40;;;16.40;;
52386;SDS011;38317;53.084;6.960;2023-02-15T17:32:21;31.58;;;17.20;;
52386;SDS011;38317;53.084;6.960;2023-02-15T17:38:00;30.50;;;16.10;;
52386;SDS011;38317;53.084;6.960;2023-02-15T17:40:45;25.38;;;13.90;;
52386;SDS011;38317;53.084;6.960;2023-02-15T17:43:11;27.55;;;15.43;;
52386;SDS011;38317;53.084;6.960;2023-02-15T17:45:41;29.13;;;17.45;;
52386;SDS011;38317;53.084;6.960;2023-02-15T17:48:19;32.17;;;17.00;;
52386;SDS011;38317;53.084;6.960;2023-02-15T17:50:55;34.20;;;16.95;;
52386;SDS011;38317;53.084;6.960;2023-02-15T17:53:22;35.00;;;17.23;;
52386;SDS011;38317;53.084;6.960;2023-02-15T17:55:49;28.77;;;16.13;;
52386;SDS011;38317;53.084;6.960;2023-02-15T17:58:16;28.15;;;16.05;;
52386;SDS011;38317;53.084;6.960;2023-02-15T18:00:44;31.10;;;16.85;;
52386;SDS011;38317;53.084;6.960;2023-02-15T18:03:42;29.75;;;16.33;;
52386;SDS011;38317;53.084;6.960;2023-02-15T18:06:30;31.98;;;17.27;;
52386;SDS011;38317;53.084;6.960;2023-02-15T18:09:16;28.15;;;15.50;;
52386;SDS011;38317;53.084;6.960;2023-02-15T18:12:11;28.58;;;16.35;;
52386;SDS011;38317;53.084;6.960;2023-02-15T18:14:47;31.10;;;15.55;;
52386;SDS011;38317;53.084;6.960;2023-02-15T18:17:13;29.55;;;17.13;;
52386;SDS011;38317;53.084;6.960;2023-02-15T18:19:40;27.63;;;15.32;;
52386;SDS011;38317;53.084;6.960;2023-02-15T18:22:09;28.45;;;16.58;;